sensor_id;sensor_type;location;lat;lon;timestamp;P1;durP1;ratioP1;P2;durP2;ratioP2
5279;SDS011;2663;53.588;10.010;2023-11-19T00:01:34;13.10;;;7.90;;
5279;SDS011;2663;53.588;10.010;2023-11-19T00:04:01;12.57;;;7.13;;
5279;SDS011;2663;53.588;10.010;2023-11-19T00:06:29;10.93;;;6.60;;
5279;SDS011;2663;53.588;10.010;2023-11-19T00:08:55;8.70;;;7.27;;
5279;SDS011;2663;53.588;10.010;2023-11-19T00:11:22;10.00;;;7.57;;
5279;SDS011;2663;53.588;10.010;2023-11-19T00:13:49;16.53;;;7.20;;
5279;SDS011;2663;53.588;10.010;2023-11-19T00:16:15;11.37;;;7.60;;
5279;SDS011;2663;53.588;10.010;2023-11-19T00:18:42;8.40;;;6.60;;
5279;SDS011;2663;53.588;10.010;2023-11-19T00:21:09;9.83;;;6.50;;
5279;SDS011;2663;53.588;10.010;2023-11-19T00:23:37;11.60;;;6.70;;
5279;SDS011;2663;53.588;10.010;2023-11-19T00:26:04;9.07;;;6.73;;
5279;SDS011;2663;53.588;10.010;2023-11-19T00:28:32;8.33;;;5.83;;
5279;SDS011;2663;53.588;10.010;2023-11-19T00:31:00;8.20;;;6.20;;
5279;SDS011;2663;53.588;10.010;2023-11-19T00:33:27;8.10;;;5.63;;
5279;SDS011;2663;53.588;10.010;2023-11-19T00:35:53;6.70;;;5.07;;
5279;SDS011;2663;53.588;10.010;2023-11-19T00:38:21;7.20;;;4.90;;
5279;SDS011;2663;53.588;10.010;2023-11-19T00:40:48;6.93;;;5.07;;
5279;SDS011;2663;53.588;10.010;2023-11-19T00:43:15;6.63;;;5.00;;
5279;SDS011;2663;53.588;10.010;2023-11-19T00:45:42;9.40;;;5.40;;
5279;SDS011;2663;53.588;10.010;2023-11-19T00:48:09;5.43;;;4.17;;
5279;SDS011;2663;53.588;10.010;2023-11-19T00:50:36;5.77;;;4.80;;
5279;SDS011;2663;53.588;10.010;2023-11-19T00:53:04;9.33;;;4.90;;
5279;SDS011;2663;53.588;10.010;2023-11-19T00:55:31;6.20;;;4.20;;
5279;SDS011;2663;53.588;10.010;2023-11-19T00:57:58;7.30;;;4.93;;
5279;SDS011;2663;53.588;10.010;2023-11-19T01:00:25;5.93;;;4.50;;
5279;SDS011;2663;53.588;10.010;2023-11-19T01:02:53;9.30;;;4.83;;
5279;SDS011;2663;53.588;10.010;2023-11-19T01:05:20;5.40;;;4.50;;
5279;SDS011;2663;53.588;10.010;2023-11-19T01:07:49;5.10;;;4.20;;
5279;SDS011;2663;53.588;10.010;2023-11-19T01:10:16;4.80;;;4.03;;
5279;SDS011;2663;53.588;10.010;2023-11-19T01:12:44;5.90;;;4.07;;
5279;SDS011;2663;53.588;10.010;2023-11-19T01:15:11;10.40;;;3.03;;
5279;SDS011;2663;53.588;10.010;2023-11-19T01:17:39;4.70;;;3.40;;
5279;SDS011;2663;53.588;10.010;2023-11-19T01:20:18;3.70;;;3.23;;
5279;SDS011;2663;53.588;10.010;2023-11-19T01:22:46;3.93;;;3.47;;
5279;SDS011;2663;53.588;10.010;2023-11-19T01:25:15;3.57;;;3.10;;
5279;SDS011;2663;53.588;10.010;2023-11-19T01:27:42;7.27;;;4.40;;
5279;SDS011;2663;53.588;10.010;2023-11-19T01:30:09;3.00;;;2.80;;
5279;SDS011;2663;53.588;10.010;2023-11-19T01:32:39;5.60;;;3.50;;
5279;SDS011;2663;53.588;10.010;2023-11-19T01:35:07;3.17;;;2.87;;
5279;SDS011;2663;53.588;10.010;2023-11-19T01:37:37;3.53;;;3.23;;
5279;SDS011;2663;53.588;10.010;2023-11-19T01:40:04;3.20;;;3.00;;
5279;SDS011;2663;53.588;10.010;2023-11-19T01:42:39;3.50;;;3.20;;
5279;SDS011;2663;53.588;10.010;2023-11-19T01:45:06;3.90;;;3.30;;
5279;SDS011;2663;53.588;10.010;2023-11-19T01:47:35;3.20;;;3.00;;
5279;SDS011;2663;53.588;10.010;2023-11-19T01:50:03;3.07;;;2.83;;
5279;SDS011;2663;53.588;10.010;2023-11-19T01:52:33;4.17;;;2.97;;
5279;SDS011;2663;53.588;10.010;2023-11-19T01:55:04;3.13;;;2.80;;
5279;SDS011;2663;53.588;10.010;2023-11-19T01:57:35;2.83;;;2.63;;
5279;SDS011;2663;53.588;10.010;2023-11-19T02:00:05;2.33;;;2.20;;
5279;SDS011;2663;53.588;10.010;2023-11-19T02:02:33;3.17;;;2.90;;
5279;SDS011;2663;53.588;10.010;2023-11-19T02:05:00;2.73;;;2.53;;
5279;SDS011;2663;53.588;10.010;2023-11-19T02:07:27;2.23;;;2.03;;
5279;SDS011;2663;53.588;10.010;2023-11-19T02:09:54;3.73;;;3.40;;
5279;SDS011;2663;53.588;10.010;2023-11-19T02:12:20;2.50;;;2.40;;
5279;SDS011;2663;53.588;10.010;2023-11-19T02:14:47;1.67;;;1.57;;
5279;SDS011;2663;53.588;10.010;2023-11-19T02:19:53;2.90;;;2.07;;
5279;SDS011;2663;53.588;10.010;2023-11-19T02:22:20;2.00;;;1.90;;
5279;SDS011;2663;53.588;10.010;2023-11-19T02:24:47;1.83;;;1.73;;
5279;SDS011;2663;53.588;10.010;2023-11-19T02:30:11;2.50;;;2.13;;
5279;SDS011;2663;53.588;10.010;2023-11-19T02:32:41;1.80;;;1.70;;
5279;SDS011;2663;53.588;10.010;2023-11-19T02:35:08;2.20;;;1.90;;
5279;SDS011;2663;53.588;10.010;2023-11-19T02:37:35;2.50;;;2.23;;
5279;SDS011;2663;53.588;10.010;2023-11-19T02:40:02;1.80;;;1.70;;
5279;SDS011;2663;53.588;10.010;2023-11-19T02:42:30;1.67;;;1.57;;
5279;SDS011;2663;53.588;10.010;2023-11-19T02:44:57;2.13;;;2.03;;
5279;SDS011;2663;53.588;10.010;2023-11-19T02:47:24;2.43;;;2.23;;
5279;SDS011;2663;53.588;10.010;2023-11-19T02:49:51;2.43;;;1.60;;
5279;SDS011;2663;53.588;10.010;2023-11-19T02:52:19;1.90;;;1.70;;
5279;SDS011;2663;53.588;10.010;2023-11-19T02:54:46;3.17;;;2.43;;
5279;SDS011;2663;53.588;10.010;2023-11-19T02:57:12;2.90;;;2.70;;
5279;SDS011;2663;53.588;10.010;2023-11-19T02:59:47;2.23;;;2.13;;
5279;SDS011;2663;53.588;10.010;2023-11-19T03:02:15;2.40;;;2.20;;
5279;SDS011;2663;53.588;10.010;2023-11-19T03:04:44;2.20;;;2.00;;
5279;SDS011;2663;53.588;10.010;2023-11-19T03:07:12;2.13;;;2.03;;
5279;SDS011;2663;53.588;10.010;2023-11-19T03:09:39;1.83;;;1.73;;
5279;SDS011;2663;53.588;10.010;2023-11-19T03:12:07;1.83;;;1.70;;
5279;SDS011;2663;53.588;10.010;2023-11-19T03:14:33;1.70;;;1.60;;
5279;SDS011;2663;53.588;10.010;2023-11-19T03:17:01;1.67;;;1.63;;
5279;SDS011;2663;53.588;10.010;2023-11-19T03:19:27;3.50;;;1.63;;
5279;SDS011;2663;53.588;10.010;2023-11-19T03:21:54;1.40;;;1.30;;
5279;SDS011;2663;53.588;10.010;2023-11-19T03:24:21;1.50;;;1.40;;
5279;SDS011;2663;53.588;10.010;2023-11-19T03:26:48;1.17;;;1.17;;
5279;SDS011;2663;53.588;10.010;2023-11-19T03:29:16;2.00;;;1.90;;
5279;SDS011;2663;53.588;10.010;2023-11-19T03:31:43;4.43;;;1.30;;
5279;SDS011;2663;53.588;10.010;2023-11-19T03:34:11;1.70;;;1.60;;
5279;SDS011;2663;53.588;10.010;2023-11-19T03:36:37;1.50;;;1.50;;
5279;SDS011;2663;53.588;10.010;2023-11-19T03:39:04;1.70;;;1.70;;
5279;SDS011;2663;53.588;10.010;2023-11-19T03:41:31;4.00;;;2.00;;
5279;SDS011;2663;53.588;10.010;2023-11-19T03:44:01;1.77;;;1.67;;
5279;SDS011;2663;53.588;10.010;2023-11-19T03:46:27;2.57;;;2.37;;
5279;SDS011;2663;53.588;10.010;2023-11-19T03:48:56;2.30;;;2.20;;
5279;SDS011;2663;53.588;10.010;2023-11-19T03:51:23;2.30;;;2.20;;
5279;SDS011;2663;53.588;10.010;2023-11-19T03:53:49;6.13;;;2.67;;
5279;SDS011;2663;53.588;10.010;2023-11-19T03:56:16;2.27;;;2.17;;
5279;SDS011;2663;53.588;10.010;2023-11-19T03:58:43;2.13;;;2.03;;
5279;SDS011;2663;53.588;10.010;2023-11-19T04:01:12;2.37;;;2.27;;
5279;SDS011;2663;53.588;10.010;2023-11-19T04:03:40;3.00;;;2.80;;
5279;SDS011;2663;53.588;10.010;2023-11-19T04:06:16;2.43;;;2.23;;
5279;SDS011;2663;53.588;10.010;2023-11-19T04:08:43;3.20;;;2.40;;
5279;SDS011;2663;53.588;10.010;2023-11-19T04:11:10;8.73;;;3.03;;
5279;SDS011;2663;53.588;10.010;2023-11-19T04:13:37;5.87;;;2.70;;
5279;SDS011;2663;53.588;10.010;2023-11-19T04:16:04;3.47;;;2.83;;
5279;SDS011;2663;53.588;10.010;2023-11-19T04:18:31;3.23;;;3.03;;
5279;SDS011;2663;53.588;10.010;2023-11-19T04:21:00;3.60;;;3.30;;
5279;SDS011;2663;53.588;10.010;2023-11-19T04:23:27;8.43;;;3.27;;
5279;SDS011;2663;53.588;10.010;2023-11-19T04:25:54;3.27;;;3.00;;
5279;SDS011;2663;53.588;10.010;2023-11-19T04:28:20;3.53;;;3.23;;
5279;SDS011;2663;53.588;10.010;2023-11-19T04:30:47;8.83;;;4.27;;
5279;SDS011;2663;53.588;10.010;2023-11-19T04:33:14;3.73;;;3.43;;
5279;SDS011;2663;53.588;10.010;2023-11-19T04:35:41;5.03;;;4.20;;
5279;SDS011;2663;53.588;10.010;2023-11-19T04:38:08;5.27;;;3.70;;
5279;SDS011;2663;53.588;10.010;2023-11-19T04:40:34;5.10;;;4.60;;
5279;SDS011;2663;53.588;10.010;2023-11-19T04:43:01;5.17;;;4.63;;
5279;SDS011;2663;53.588;10.010;2023-11-19T04:45:28;6.93;;;4.47;;
5279;SDS011;2663;53.588;10.010;2023-11-19T04:47:55;4.60;;;4.30;;
5279;SDS011;2663;53.588;10.010;2023-11-19T04:50:21;8.47;;;4.53;;
5279;SDS011;2663;53.588;10.010;2023-11-19T04:52:48;5.17;;;4.73;;
5279;SDS011;2663;53.588;10.010;2023-11-19T04:55:15;7.20;;;5.90;;
5279;SDS011;2663;53.588;10.010;2023-11-19T04:57:41;14.03;;;5.30;;
5279;SDS011;2663;53.588;10.010;2023-11-19T05:00:09;7.50;;;5.27;;
5279;SDS011;2663;53.588;10.010;2023-11-19T05:02:40;13.30;;;6.37;;
5279;SDS011;2663;53.588;10.010;2023-11-19T05:05:07;6.83;;;6.13;;
5279;SDS011;2663;53.588;10.010;2023-11-19T05:07:35;9.20;;;7.70;;
5279;SDS011;2663;53.588;10.010;2023-11-19T05:10:02;9.90;;;7.03;;
5279;SDS011;2663;53.588;10.010;2023-11-19T05:12:30;11.20;;;7.50;;
5279;SDS011;2663;53.588;10.010;2023-11-19T05:14:57;12.93;;;8.83;;
5279;SDS011;2663;53.588;10.010;2023-11-19T05:17:24;10.53;;;8.13;;
5279;SDS011;2663;53.588;10.010;2023-11-19T05:19:51;11.80;;;7.80;;
5279;SDS011;2663;53.588;10.010;2023-11-19T05:22:18;16.93;;;8.73;;
5279;SDS011;2663;53.588;10.010;2023-11-19T05:24:47;11.70;;;7.60;;
5279;SDS011;2663;53.588;10.010;2023-11-19T05:27:15;12.73;;;8.00;;
5279;SDS011;2663;53.588;10.010;2023-11-19T05:29:42;17.10;;;9.30;;
5279;SDS011;2663;53.588;10.010;2023-11-19T05:32:10;10.70;;;8.30;;
5279;SDS011;2663;53.588;10.010;2023-11-19T05:34:37;16.43;;;8.80;;
5279;SDS011;2663;53.588;10.010;2023-11-19T05:37:17;13.07;;;9.10;;
5279;SDS011;2663;53.588;10.010;2023-11-19T05:39:45;11.20;;;8.30;;
5279;SDS011;2663;53.588;10.010;2023-11-19T05:42:12;21.23;;;10.33;;
5279;SDS011;2663;53.588;10.010;2023-11-19T05:44:38;11.20;;;8.20;;
5279;SDS011;2663;53.588;10.010;2023-11-19T05:47:07;20.80;;;10.93;;
5279;SDS011;2663;53.588;10.010;2023-11-19T05:49:34;20.63;;;11.10;;
5279;SDS011;2663;53.588;10.010;2023-11-19T05:52:00;29.63;;;13.80;;
5279;SDS011;2663;53.588;10.010;2023-11-19T05:54:29;31.17;;;13.90;;
5279;SDS011;2663;53.588;10.010;2023-11-19T05:56:57;35.70;;;17.23;;
5279;SDS011;2663;53.588;10.010;2023-11-19T05:59:24;35.27;;;16.50;;
5279;SDS011;2663;53.588;10.010;2023-11-19T06:01:51;41.50;;;16.93;;
5279;SDS011;2663;53.588;10.010;2023-11-19T06:04:18;35.70;;;16.83;;
5279;SDS011;2663;53.588;10.010;2023-11-19T06:06:44;39.43;;;19.57;;
5279;SDS011;2663;53.588;10.010;2023-11-19T06:09:11;36.37;;;18.70;;
5279;SDS011;2663;53.588;10.010;2023-11-19T06:11:39;40.43;;;18.60;;
5279;SDS011;2663;53.588;10.010;2023-11-19T06:14:06;45.97;;;19.23;;
5279;SDS011;2663;53.588;10.010;2023-11-19T06:16:33;32.73;;;16.77;;
5279;SDS011;2663;53.588;10.010;2023-11-19T06:19:00;35.63;;;19.37;;
5279;SDS011;2663;53.588;10.010;2023-11-19T06:21:27;48.50;;;19.00;;
5279;SDS011;2663;53.588;10.010;2023-11-19T06:23:53;35.10;;;16.53;;
5279;SDS011;2663;53.588;10.010;2023-11-19T06:26:20;34.03;;;18.97;;
5279;SDS011;2663;53.588;10.010;2023-11-19T06:28:48;38.83;;;17.37;;
5279;SDS011;2663;53.588;10.010;2023-11-19T06:31:15;41.50;;;17.60;;
5279;SDS011;2663;53.588;10.010;2023-11-19T06:33:42;40.63;;;18.20;;
5279;SDS011;2663;53.588;10.010;2023-11-19T06:36:09;44.63;;;16.60;;
5279;SDS011;2663;53.588;10.010;2023-11-19T06:38:36;38.03;;;16.40;;
5279;SDS011;2663;53.588;10.010;2023-11-19T06:41:05;43.93;;;15.93;;
5279;SDS011;2663;53.588;10.010;2023-11-19T06:43:33;42.47;;;16.03;;
5279;SDS011;2663;53.588;10.010;2023-11-19T06:46:03;40.03;;;15.87;;
5279;SDS011;2663;53.588;10.010;2023-11-19T06:48:32;53.83;;;15.43;;
5279;SDS011;2663;53.588;10.010;2023-11-19T06:50:59;42.57;;;14.30;;
5279;SDS011;2663;53.588;10.010;2023-11-19T06:53:26;57.80;;;15.17;;
5279;SDS011;2663;53.588;10.010;2023-11-19T06:55:54;39.60;;;15.77;;
5279;SDS011;2663;53.588;10.010;2023-11-19T06:58:21;37.20;;;15.27;;
5279;SDS011;2663;53.588;10.010;2023-11-19T07:00:48;42.87;;;14.43;;
5279;SDS011;2663;53.588;10.010;2023-11-19T07:03:16;42.63;;;15.27;;
5279;SDS011;2663;53.588;10.010;2023-11-19T07:05:43;40.93;;;15.10;;
5279;SDS011;2663;53.588;10.010;2023-11-19T07:08:10;33.63;;;13.13;;
5279;SDS011;2663;53.588;10.010;2023-11-19T07:10:37;28.00;;;10.13;;
5279;SDS011;2663;53.588;10.010;2023-11-19T07:13:04;41.07;;;11.90;;
5279;SDS011;2663;53.588;10.010;2023-11-19T07:15:32;41.37;;;11.00;;
5279;SDS011;2663;53.588;10.010;2023-11-19T07:17:59;36.90;;;10.63;;
5279;SDS011;2663;53.588;10.010;2023-11-19T07:20:28;29.23;;;11.40;;
5279;SDS011;2663;53.588;10.010;2023-11-19T07:22:55;47.50;;;8.70;;
5279;SDS011;2663;53.588;10.010;2023-11-19T07:25:23;24.50;;;7.30;;
5279;SDS011;2663;53.588;10.010;2023-11-19T07:27:51;51.63;;;9.30;;
5279;SDS011;2663;53.588;10.010;2023-11-19T07:30:18;28.40;;;7.63;;
5279;SDS011;2663;53.588;10.010;2023-11-19T07:32:45;38.60;;;7.43;;
5279;SDS011;2663;53.588;10.010;2023-11-19T07:35:12;39.37;;;6.80;;
5279;SDS011;2663;53.588;10.010;2023-11-19T07:37:38;35.07;;;7.53;;
5279;SDS011;2663;53.588;10.010;2023-11-19T07:40:06;42.80;;;7.90;;
5279;SDS011;2663;53.588;10.010;2023-11-19T07:42:33;32.00;;;5.23;;
5279;SDS011;2663;53.588;10.010;2023-11-19T07:45:00;25.03;;;4.50;;
5279;SDS011;2663;53.588;10.010;2023-11-19T07:47:27;32.37;;;5.30;;
5279;SDS011;2663;53.588;10.010;2023-11-19T07:49:55;22.77;;;4.63;;
5279;SDS011;2663;53.588;10.010;2023-11-19T07:52:21;35.97;;;7.57;;
5279;SDS011;2663;53.588;10.010;2023-11-19T07:54:48;32.30;;;5.90;;
5279;SDS011;2663;53.588;10.010;2023-11-19T07:57:15;39.53;;;6.53;;
5279;SDS011;2663;53.588;10.010;2023-11-19T07:59:42;28.13;;;5.63;;
5279;SDS011;2663;53.588;10.010;2023-11-19T08:02:08;41.87;;;6.23;;
5279;SDS011;2663;53.588;10.010;2023-11-19T08:04:35;35.17;;;6.20;;
5279;SDS011;2663;53.588;10.010;2023-11-19T08:07:03;42.63;;;6.00;;
5279;SDS011;2663;53.588;10.010;2023-11-19T08:09:29;29.87;;;6.47;;
5279;SDS011;2663;53.588;10.010;2023-11-19T08:11:57;35.20;;;5.90;;
5279;SDS011;2663;53.588;10.010;2023-11-19T08:14:23;33.20;;;6.33;;
5279;SDS011;2663;53.588;10.010;2023-11-19T08:16:50;43.97;;;6.13;;
5279;SDS011;2663;53.588;10.010;2023-11-19T08:19:17;42.93;;;7.30;;
5279;SDS011;2663;53.588;10.010;2023-11-19T08:21:44;32.57;;;4.80;;
5279;SDS011;2663;53.588;10.010;2023-11-19T08:24:11;43.47;;;6.17;;
5279;SDS011;2663;53.588;10.010;2023-11-19T08:26:37;31.23;;;4.70;;
5279;SDS011;2663;53.588;10.010;2023-11-19T08:29:05;38.53;;;5.80;;
5279;SDS011;2663;53.588;10.010;2023-11-19T08:31:32;35.10;;;5.67;;
5279;SDS011;2663;53.588;10.010;2023-11-19T08:33:58;40.43;;;5.40;;
5279;SDS011;2663;53.588;10.010;2023-11-19T08:36:25;35.50;;;4.80;;
5279;SDS011;2663;53.588;10.010;2023-11-19T08:38:52;53.70;;;6.73;;
5279;SDS011;2663;53.588;10.010;2023-11-19T08:41:18;23.87;;;5.00;;
5279;SDS011;2663;53.588;10.010;2023-11-19T08:43:45;47.67;;;6.20;;
5279;SDS011;2663;53.588;10.010;2023-11-19T08:46:13;41.07;;;5.80;;
5279;SDS011;2663;53.588;10.010;2023-11-19T08:48:40;33.37;;;6.20;;
5279;SDS011;2663;53.588;10.010;2023-11-19T08:51:06;42.67;;;6.07;;
5279;SDS011;2663;53.588;10.010;2023-11-19T08:53:33;38.53;;;5.10;;
5279;SDS011;2663;53.588;10.010;2023-11-19T08:56:00;39.53;;;7.00;;
5279;SDS011;2663;53.588;10.010;2023-11-19T08:58:29;32.77;;;5.97;;
5279;SDS011;2663;53.588;10.010;2023-11-19T09:00:57;39.50;;;6.00;;
5279;SDS011;2663;53.588;10.010;2023-11-19T09:03:24;41.30;;;5.20;;
5279;SDS011;2663;53.588;10.010;2023-11-19T09:05:56;49.60;;;6.77;;
5279;SDS011;2663;53.588;10.010;2023-11-19T09:08:23;50.07;;;6.33;;
5279;SDS011;2663;53.588;10.010;2023-11-19T09:10:50;45.90;;;7.57;;
5279;SDS011;2663;53.588;10.010;2023-11-19T09:13:17;32.20;;;5.30;;
5279;SDS011;2663;53.588;10.010;2023-11-19T09:15:44;39.17;;;5.93;;
5279;SDS011;2663;53.588;10.010;2023-11-19T09:18:10;38.77;;;6.00;;
5279;SDS011;2663;53.588;10.010;2023-11-19T09:20:37;47.67;;;6.67;;
5279;SDS011;2663;53.588;10.010;2023-11-19T09:23:05;35.23;;;5.87;;
5279;SDS011;2663;53.588;10.010;2023-11-19T09:25:32;37.87;;;6.00;;
5279;SDS011;2663;53.588;10.010;2023-11-19T09:28:03;50.03;;;6.00;;
5279;SDS011;2663;53.588;10.010;2023-11-19T09:30:29;46.33;;;6.33;;
5279;SDS011;2663;53.588;10.010;2023-11-19T09:32:56;41.10;;;5.80;;
5279;SDS011;2663;53.588;10.010;2023-11-19T09:35:23;28.50;;;4.40;;
5279;SDS011;2663;53.588;10.010;2023-11-19T09:37:50;53.83;;;6.20;;
5279;SDS011;2663;53.588;10.010;2023-11-19T09:40:17;29.30;;;5.73;;
5279;SDS011;2663;53.588;10.010;2023-11-19T09:42:44;37.43;;;4.60;;
5279;SDS011;2663;53.588;10.010;2023-11-19T09:45:15;49.00;;;6.70;;
5279;SDS011;2663;53.588;10.010;2023-11-19T09:47:43;48.20;;;8.10;;
5279;SDS011;2663;53.588;10.010;2023-11-19T09:50:14;35.50;;;5.90;;
5279;SDS011;2663;53.588;10.010;2023-11-19T09:52:43;43.27;;;6.03;;
5279;SDS011;2663;53.588;10.010;2023-11-19T09:55:10;39.93;;;6.70;;
5279;SDS011;2663;53.588;10.010;2023-11-19T09:57:40;52.97;;;6.73;;
5279;SDS011;2663;53.588;10.010;2023-11-19T10:00:08;42.73;;;7.27;;
5279;SDS011;2663;53.588;10.010;2023-11-19T10:02:37;50.63;;;7.90;;
5279;SDS011;2663;53.588;10.010;2023-11-19T10:05:06;44.97;;;8.43;;
5279;SDS011;2663;53.588;10.010;2023-11-19T10:07:33;31.53;;;5.77;;
5279;SDS011;2663;53.588;10.010;2023-11-19T10:10:01;34.33;;;5.97;;
5279;SDS011;2663;53.588;10.010;2023-11-19T10:12:30;56.57;;;7.63;;
5279;SDS011;2663;53.588;10.010;2023-11-19T10:14:57;45.63;;;6.30;;
5279;SDS011;2663;53.588;10.010;2023-11-19T10:17:28;40.90;;;5.43;;
5279;SDS011;2663;53.588;10.010;2023-11-19T10:19:58;48.53;;;5.90;;
5279;SDS011;2663;53.588;10.010;2023-11-19T10:22:25;58.47;;;8.30;;
5279;SDS011;2663;53.588;10.010;2023-11-19T10:24:53;35.30;;;5.23;;
5279;SDS011;2663;53.588;10.010;2023-11-19T10:27:23;37.97;;;6.47;;
5279;SDS011;2663;53.588;10.010;2023-11-19T10:29:51;50.13;;;7.20;;
5279;SDS011;2663;53.588;10.010;2023-11-19T10:32:18;22.30;;;3.83;;
5279;SDS011;2663;53.588;10.010;2023-11-19T10:34:52;52.23;;;6.90;;
5279;SDS011;2663;53.588;10.010;2023-11-19T10:37:31;59.43;;;6.50;;
5279;SDS011;2663;53.588;10.010;2023-11-19T10:39:59;71.83;;;6.77;;
5279;SDS011;2663;53.588;10.010;2023-11-19T10:42:26;62.30;;;7.43;;
5279;SDS011;2663;53.588;10.010;2023-11-19T10:44:52;31.03;;;6.07;;
5279;SDS011;2663;53.588;10.010;2023-11-19T10:47:19;38.53;;;6.37;;
5279;SDS011;2663;53.588;10.010;2023-11-19T10:50:04;39.63;;;6.47;;
5279;SDS011;2663;53.588;10.010;2023-11-19T10:52:32;39.67;;;7.40;;
5279;SDS011;2663;53.588;10.010;2023-11-19T10:55:00;47.60;;;6.77;;
5279;SDS011;2663;53.588;10.010;2023-11-19T10:57:31;44.63;;;6.10;;
5279;SDS011;2663;53.588;10.010;2023-11-19T11:00:03;49.13;;;7.90;;
5279;SDS011;2663;53.588;10.010;2023-11-19T11:02:36;30.67;;;5.80;;
5279;SDS011;2663;53.588;10.010;2023-11-19T11:05:08;40.70;;;5.33;;
5279;SDS011;2663;53.588;10.010;2023-11-19T11:07:38;35.43;;;5.60;;
5279;SDS011;2663;53.588;10.010;2023-11-19T11:10:07;33.13;;;6.33;;
5279;SDS011;2663;53.588;10.010;2023-11-19T11:12:36;33.67;;;6.70;;
5279;SDS011;2663;53.588;10.010;2023-11-19T11:15:08;41.73;;;6.27;;
5279;SDS011;2663;53.588;10.010;2023-11-19T11:17:40;64.23;;;6.70;;
5279;SDS011;2663;53.588;10.010;2023-11-19T11:20:09;52.33;;;6.60;;
5279;SDS011;2663;53.588;10.010;2023-11-19T11:22:44;34.80;;;5.90;;
5279;SDS011;2663;53.588;10.010;2023-11-19T11:34:50;42.87;;;5.67;;
5279;SDS011;2663;53.588;10.010;2023-11-19T11:37:42;33.80;;;5.50;;
5279;SDS011;2663;53.588;10.010;2023-11-19T11:40:14;41.07;;;6.10;;
5279;SDS011;2663;53.588;10.010;2023-11-19T11:42:42;25.60;;;5.40;;
5279;SDS011;2663;53.588;10.010;2023-11-19T11:45:09;45.73;;;4.70;;
5279;SDS011;2663;53.588;10.010;2023-11-19T11:50:12;52.43;;;7.60;;
5279;SDS011;2663;53.588;10.010;2023-11-19T11:55:36;42.80;;;6.13;;
5279;SDS011;2663;53.588;10.010;2023-11-19T11:58:18;55.47;;;6.67;;
5279;SDS011;2663;53.588;10.010;2023-11-19T12:00:47;49.13;;;6.73;;
5279;SDS011;2663;53.588;10.010;2023-11-19T12:03:15;44.23;;;6.10;;
5279;SDS011;2663;53.588;10.010;2023-11-19T12:05:45;41.57;;;7.20;;
5279;SDS011;2663;53.588;10.010;2023-11-19T12:08:14;51.73;;;7.77;;
5279;SDS011;2663;53.588;10.010;2023-11-19T12:10:46;41.60;;;5.97;;
5279;SDS011;2663;53.588;10.010;2023-11-19T12:13:19;55.60;;;5.53;;
5279;SDS011;2663;53.588;10.010;2023-11-19T12:18:26;43.30;;;6.10;;
5279;SDS011;2663;53.588;10.010;2023-11-19T12:20:54;48.50;;;6.40;;
5279;SDS011;2663;53.588;10.010;2023-11-19T12:23:21;47.00;;;6.53;;
5279;SDS011;2663;53.588;10.010;2023-11-19T12:25:48;43.37;;;5.83;;
5279;SDS011;2663;53.588;10.010;2023-11-19T12:28:16;47.63;;;5.90;;
5279;SDS011;2663;53.588;10.010;2023-11-19T12:30:43;30.57;;;6.77;;
5279;SDS011;2663;53.588;10.010;2023-11-19T12:33:12;37.40;;;4.87;;
5279;SDS011;2663;53.588;10.010;2023-11-19T12:35:39;45.60;;;5.03;;
5279;SDS011;2663;53.588;10.010;2023-11-19T12:38:06;38.57;;;6.03;;
5279;SDS011;2663;53.588;10.010;2023-11-19T12:40:33;46.27;;;6.10;;
5279;SDS011;2663;53.588;10.010;2023-11-19T12:43:00;28.40;;;5.33;;
5279;SDS011;2663;53.588;10.010;2023-11-19T12:45:36;30.27;;;5.07;;
5279;SDS011;2663;53.588;10.010;2023-11-19T12:48:06;43.30;;;5.63;;
5279;SDS011;2663;53.588;10.010;2023-11-19T12:50:49;40.23;;;6.53;;
5279;SDS011;2663;53.588;10.010;2023-11-19T12:53:21;41.53;;;5.20;;
5279;SDS011;2663;53.588;10.010;2023-11-19T12:55:49;42.47;;;6.13;;
5279;SDS011;2663;53.588;10.010;2023-11-19T12:58:29;27.33;;;5.03;;
5279;SDS011;2663;53.588;10.010;2023-11-19T13:01:01;40.07;;;6.57;;
5279;SDS011;2663;53.588;10.010;2023-11-19T13:03:30;40.80;;;6.33;;
5279;SDS011;2663;53.588;10.010;2023-11-19T13:06:07;40.07;;;7.43;;
5279;SDS011;2663;53.588;10.010;2023-11-19T13:08:49;41.13;;;6.03;;
5279;SDS011;2663;53.588;10.010;2023-11-19T13:11:34;40.40;;;5.27;;
5279;SDS011;2663;53.588;10.010;2023-11-19T13:14:03;43.30;;;6.40;;
5279;SDS011;2663;53.588;10.010;2023-11-19T13:16:31;35.03;;;6.27;;
5279;SDS011;2663;53.588;10.010;2023-11-19T13:18:58;42.03;;;6.70;;
5279;SDS011;2663;53.588;10.010;2023-11-19T13:21:26;49.63;;;6.07;;
5279;SDS011;2663;53.588;10.010;2023-11-19T13:23:53;43.27;;;6.00;;
5279;SDS011;2663;53.588;10.010;2023-11-19T13:26:20;42.13;;;6.70;;
5279;SDS011;2663;53.588;10.010;2023-11-19T13:28:46;46.70;;;5.40;;
5279;SDS011;2663;53.588;10.010;2023-11-19T13:31:13;27.57;;;4.80;;
5279;SDS011;2663;53.588;10.010;2023-11-19T13:33:41;34.70;;;5.73;;
5279;SDS011;2663;53.588;10.010;2023-11-19T13:36:09;32.90;;;5.20;;
5279;SDS011;2663;53.588;10.010;2023-11-19T13:38:39;34.27;;;6.80;;
5279;SDS011;2663;53.588;10.010;2023-11-19T13:41:10;33.90;;;5.43;;
5279;SDS011;2663;53.588;10.010;2023-11-19T13:43:38;27.40;;;5.67;;
5279;SDS011;2663;53.588;10.010;2023-11-19T13:46:05;40.43;;;6.50;;
5279;SDS011;2663;53.588;10.010;2023-11-19T13:48:32;38.90;;;4.53;;
5279;SDS011;2663;53.588;10.010;2023-11-19T13:50:59;38.93;;;6.23;;
5279;SDS011;2663;53.588;10.010;2023-11-19T13:53:26;33.30;;;5.97;;
5279;SDS011;2663;53.588;10.010;2023-11-19T13:55:53;44.37;;;5.87;;
5279;SDS011;2663;53.588;10.010;2023-11-19T13:58:19;38.27;;;6.03;;
5279;SDS011;2663;53.588;10.010;2023-11-19T14:00:46;51.10;;;5.90;;
5279;SDS011;2663;53.588;10.010;2023-11-19T14:03:13;31.03;;;5.40;;
5279;SDS011;2663;53.588;10.010;2023-11-19T14:05:40;30.60;;;4.53;;
5279;SDS011;2663;53.588;10.010;2023-11-19T14:08:08;38.83;;;5.63;;
5279;SDS011;2663;53.588;10.010;2023-11-19T14:10:50;44.77;;;5.80;;
5279;SDS011;2663;53.588;10.010;2023-11-19T14:13:17;36.60;;;6.73;;
5279;SDS011;2663;53.588;10.010;2023-11-19T14:15:44;33.00;;;5.40;;
5279;SDS011;2663;53.588;10.010;2023-11-19T14:18:15;39.97;;;4.97;;
5279;SDS011;2663;53.588;10.010;2023-11-19T14:20:41;34.30;;;5.40;;
5279;SDS011;2663;53.588;10.010;2023-11-19T14:23:09;41.23;;;5.80;;
5279;SDS011;2663;53.588;10.010;2023-11-19T14:25:35;43.97;;;5.20;;
5279;SDS011;2663;53.588;10.010;2023-11-19T14:28:02;34.00;;;5.20;;
5279;SDS011;2663;53.588;10.010;2023-11-19T14:30:31;32.10;;;4.33;;
5279;SDS011;2663;53.588;10.010;2023-11-19T14:32:58;46.97;;;6.40;;
5279;SDS011;2663;53.588;10.010;2023-11-19T14:35:25;34.93;;;7.30;;
5279;SDS011;2663;53.588;10.010;2023-11-19T14:37:52;19.63;;;3.97;;
5279;SDS011;2663;53.588;10.010;2023-11-19T14:40:19;46.80;;;6.67;;
5279;SDS011;2663;53.588;10.010;2023-11-19T14:42:45;35.70;;;5.00;;
5279;SDS011;2663;53.588;10.010;2023-11-19T14:45:12;33.90;;;5.07;;
5279;SDS011;2663;53.588;10.010;2023-11-19T14:47:39;40.50;;;6.60;;
5279;SDS011;2663;53.588;10.010;2023-11-19T14:50:06;43.53;;;6.43;;
5279;SDS011;2663;53.588;10.010;2023-11-19T14:52:35;21.43;;;4.50;;
5279;SDS011;2663;53.588;10.010;2023-11-19T14:55:03;31.70;;;5.20;;
5279;SDS011;2663;53.588;10.010;2023-11-19T14:57:30;25.50;;;5.07;;
5279;SDS011;2663;53.588;10.010;2023-11-19T14:59:58;29.07;;;5.00;;
5279;SDS011;2663;53.588;10.010;2023-11-19T15:02:24;19.90;;;3.90;;
5279;SDS011;2663;53.588;10.010;2023-11-19T15:04:51;19.20;;;3.43;;
5279;SDS011;2663;53.588;10.010;2023-11-19T15:07:18;23.57;;;2.43;;
5279;SDS011;2663;53.588;10.010;2023-11-19T15:09:45;17.70;;;2.70;;
5279;SDS011;2663;53.588;10.010;2023-11-19T15:12:11;2.50;;;1.20;;
5279;SDS011;2663;53.588;10.010;2023-11-19T15:14:38;8.93;;;2.53;;
5279;SDS011;2663;53.588;10.010;2023-11-19T15:17:05;4.77;;;1.53;;
5279;SDS011;2663;53.588;10.010;2023-11-19T15:19:33;10.07;;;1.43;;